Time;durP1;ratioP1;P1;durP2;ratioP2;P2;SDS_P1;SDS_P2;PMS_P1;PMS_P2;Temp;Humidity;BMP_temperature;BMP_pressure;BME280_temperature;BME280_humidity;BME280_pressure;Samples;Min_cycle;Max_cycle;Signal;HPM_P1;HPM_P2
2021/08/23 00:00:18;;;;;;;10.60;6.57;;;16.50;99.90;;;;;;5134681;27;20548;-57
2021/08/23 00:02:44;;;;;;;8.40;6.03;;;16.50;99.90;;;;;;5134710;27;20388;-56
2021/08/23 00:05:13;;;;;;;9.48;5.85;;;16.40;99.90;;;;;;5134444;27;20405;-56
2021/08/23 00:07:39;;;;;;;7.68;5.93;;;16.40;99.90;;;;;;5134455;27;20051;-55
2021/08/23 00:10:05;;;;;;;8.23;5.45;;;16.40;99.90;;;;;;5134343;27;20435;-56
2021/08/23 00:12:32;;;;;;;10.15;4.88;;;16.40;99.90;;;;;;5134078;27;20090;-57
2021/08/23 00:14:57;;;;;;;14.82;5.20;;;16.40;99.90;;;;;;5133911;27;20070;-56
2021/08/23 00:17:23;;;;;;;6.47;4.50;;;16.40;99.90;;;;;;5134166;27;20071;-56
2021/08/23 00:19:49;;;;;;;9.15;5.22;;;16.40;99.90;;;;;;5115542;27;20053;-56
2021/08/23 00:24:50;;;;;;;8.50;4.65;;;16.40;99.90;;;;;;5133750;27;20488;-56
2021/08/23 00:27:16;;;;;;;10.77;5.18;;;16.30;99.90;;;;;;5134024;27;20217;-56
2021/08/23 00:29:43;;;;;;;10.73;5.50;;;16.40;99.90;;;;;;5133626;27;20555;-56
2021/08/23 00:32:10;;;;;;;8.45;5.82;;;16.40;99.90;;;;;;5134062;27;20496;-56
2021/08/23 00:34:36;;;;;;;9.80;5.43;;;16.40;99.90;;;;;;5133543;27;20123;-56
2021/08/23 00:37:03;;;;;;;8.10;5.00;;;16.40;99.90;;;;;;5133834;27;20138;-56
2021/08/23 00:39:29;;;;;;;9.18;6.15;;;16.40;99.90;;;;;;5133538;27;20459;-56
2021/08/23 00:41:55;;;;;;;8.00;5.10;;;16.40;99.90;;;;;;5133528;27;20127;-56
2021/08/23 00:44:20;;;;;;;6.68;5.25;;;16.40;99.90;;;;;;5133465;27;20370;-55
2021/08/23 00:46:46;;;;;;;10.00;5.07;;;16.50;99.90;;;;;;5132856;27;20051;-55
2021/08/23 00:49:13;;;;;;;10.63;5.80;;;16.50;99.90;;;;;;5133478;27;20047;-56
2021/08/23 00:51:39;;;;;;;9.23;4.88;;;16.50;99.90;;;;;;5133331;27;20050;-56
2021/08/23 00:54:06;;;;;;;9.93;4.82;;;16.50;99.90;;;;;;5133370;27;20130;-56
2021/08/23 00:56:32;;;;;;;9.88;4.45;;;16.50;99.90;;;;;;5133175;27;20043;-56
2021/08/23 00:58:57;;;;;;;11.20;4.95;;;16.50;99.90;;;;;;5133472;27;20099;-55
2021/08/23 01:01:27;;;;;;;9.98;4.75;;;16.50;99.90;;;;;;5133237;27;20113;-56
2021/08/23 01:04:07;;;;;;;9.02;4.50;;;16.50;99.90;;;;;;5133343;27;20465;-56
2021/08/23 01:06:33;;;;;;;11.75;5.07;;;16.50;99.90;;;;;;5133110;27;20039;-56
2021/08/23 01:09:05;;;;;;;7.25;4.78;;;16.60;99.90;;;;;;5133480;27;20091;-56
2021/08/23 01:11:41;;;;;;;9.10;4.30;;;16.50;99.90;;;;;;5132996;27;20152;-56
2021/08/23 01:14:07;;;;;;;10.90;5.47;;;16.60;99.90;;;;;;5133225;27;20043;-56
2021/08/23 01:16:33;;;;;;;6.60;4.82;;;16.60;99.90;;;;;;5132920;27;20043;-56
2021/08/23 01:18:59;;;;;;;8.35;4.25;;;16.60;99.90;;;;;;5132945;27;20095;-56
2021/08/23 01:21:27;;;;;;;5.35;4.07;;;16.60;99.90;;;;;;5133072;27;20043;-56
2021/08/23 01:23:55;;;;;;;11.55;4.07;;;16.60;99.90;;;;;;5133053;27;20039;-56
2021/08/23 01:26:28;;;;;;;12.90;5.57;;;16.60;99.90;;;;;;5132978;27;20063;-56
2021/08/23 01:29:08;;;;;;;11.02;4.60;;;16.50;99.90;;;;;;5132734;27;20408;-56
2021/08/23 01:32:06;;;;;;;10.50;5.22;;;16.50;99.90;;;;;;5132888;27;20064;-56
2021/08/23 01:34:33;;;;;;;9.90;4.10;;;16.50;99.90;;;;;;5132803;27;20039;-56
2021/08/23 01:36:59;;;;;;;8.77;4.45;;;16.50;99.90;;;;;;5132742;28;20035;-56
2021/08/23 01:39:25;;;;;;;10.07;4.40;;;16.50;99.90;;;;;;5132649;28;20477;-56
2021/08/23 01:41:51;;;;;;;10.60;4.32;;;16.50;99.90;;;;;;5132727;28;20107;-56
2021/08/23 01:44:16;;;;;;;13.93;4.88;;;16.40;99.90;;;;;;5132881;28;20507;-56
2021/08/23 01:46:42;;;;;;;12.43;4.75;;;16.30;99.90;;;;;;5132882;28;20406;-56
2021/08/23 01:49:09;;;;;;;7.82;4.72;;;16.40;99.90;;;;;;5133082;28;20050;-56
2021/08/23 01:51:36;;;;;;;9.80;5.28;;;16.40;99.90;;;;;;5132571;28;20051;-56
2021/08/23 01:54:02;;;;;;;9.10;5.45;;;16.30;99.90;;;;;;5132625;28;20106;-56
2021/08/23 01:56:29;;;;;;;11.07;4.85;;;16.30;99.90;;;;;;5132567;28;20501;-56
2021/08/23 01:58:57;;;;;;;11.30;4.72;;;16.30;99.90;;;;;;5135861;27;20062;-55
2021/08/23 02:01:27;;;;;;;6.85;4.30;;;16.20;99.90;;;;;;5136984;27;20047;-56
2021/08/23 02:03:53;;;;;;;12.45;5.22;;;16.30;99.90;;;;;;5136958;27;20043;-56
2021/08/23 02:06:18;;;;;;;8.10;5.22;;;16.20;99.90;;;;;;5136939;27;20540;-56
2021/08/23 02:08:44;;;;;;;13.13;4.93;;;16.20;99.90;;;;;;5136807;27;20047;-55
2021/08/23 02:11:11;;;;;;;10.27;4.55;;;16.20;99.90;;;;;;5136363;27;20063;-55
2021/08/23 02:13:36;;;;;;;8.05;4.32;;;16.20;99.90;;;;;;5136368;27;20042;-56
2021/08/23 02:16:03;;;;;;;10.32;4.82;;;16.20;99.90;;;;;;5136415;27;20491;-56
2021/08/23 02:18:29;;;;;;;10.45;5.20;;;16.20;99.90;;;;;;5136537;27;20039;-56
2021/08/23 02:20:55;;;;;;;7.40;5.03;;;16.20;99.90;;;;;;5136651;27;20125;-56
2021/08/23 02:23:20;;;;;;;7.68;4.70;;;16.20;99.90;;;;;;5136321;27;20397;-56
2021/08/23 02:25:47;;;;;;;12.13;5.63;;;16.20;99.90;;;;;;5136169;27;20067;-56
2021/08/23 02:28:13;;;;;;;9.10;5.97;;;16.20;99.90;;;;;;5136192;27;20039;-55
2021/08/23 02:30:39;;;;;;;9.43;4.93;;;16.20;99.90;;;;;;5135972;27;20047;-56
2021/08/23 02:33:05;;;;;;;12.95;5.03;;;16.20;99.90;;;;;;5136118;27;20388;-56
2021/08/23 02:35:31;;;;;;;7.90;4.95;;;16.20;99.90;;;;;;5135972;27;20416;-56
2021/08/23 02:37:57;;;;;;;12.82;5.70;;;16.20;99.90;;;;;;5136044;27;20039;-55
2021/08/23 02:40:23;;;;;;;6.85;4.80;;;16.20;99.90;;;;;;5135956;27;20495;-56
2021/08/23 02:42:48;;;;;;;10.13;4.78;;;16.20;99.90;;;;;;5135877;27;20050;-56
2021/08/23 02:45:14;;;;;;;8.57;5.15;;;16.20;99.90;;;;;;5136118;27;20054;-56
2021/08/23 02:47:40;;;;;;;6.85;4.20;;;16.20;99.90;;;;;;5136110;27;20075;-56
2021/08/23 02:50:08;;;;;;;10.32;5.60;;;16.20;99.90;;;;;;5135720;27;20066;-56
2021/08/23 02:52:35;;;;;;;10.55;4.70;;;16.30;99.90;;;;;;5135862;27;20039;-56
2021/08/23 02:55:02;;;;;;;14.98;5.10;;;16.30;99.90;;;;;;5135487;27;20138;-56
2021/08/23 02:57:27;;;;;;;7.53;4.70;;;16.30;99.90;;;;;;5135641;27;20035;-56
2021/08/23 02:59:53;;;;;;;11.27;4.55;;;16.30;99.90;;;;;;5135848;27;20099;-56
2021/08/23 03:02:19;;;;;;;9.75;4.63;;;16.30;99.90;;;;;;5135874;27;20568;-56
2021/08/23 03:04:44;;;;;;;9.15;4.32;;;16.30;99.90;;;;;;5135845;27;20110;-55
2021/08/23 03:07:10;;;;;;;8.10;4.22;;;16.30;99.90;;;;;;5135515;27;20473;-56
2021/08/23 03:09:36;;;;;;;10.23;4.10;;;16.30;99.90;;;;;;5134474;27;20046;-55
2021/08/23 03:12:02;;;;;;;6.88;3.75;;;16.30;99.90;;;;;;5135360;27;20039;-56
2021/08/23 03:14:28;;;;;;;7.03;3.58;;;16.30;99.90;;;;;;5135532;27;20038;-55
2021/08/23 03:16:54;;;;;;;8.07;3.90;;;16.20;99.90;;;;;;5135314;27;20046;-55
2021/08/23 03:19:20;;;;;;;9.77;3.85;;;16.20;99.90;;;;;;5135141;27;20050;-56
2021/08/23 03:21:46;;;;;;;10.30;4.07;;;16.20;99.90;;;;;;5135080;27;20035;-55
2021/08/23 03:24:12;;;;;;;8.35;4.35;;;16.20;99.90;;;;;;5135104;27;20039;-56
2021/08/23 03:26:39;;;;;;;6.97;3.65;;;16.20;99.90;;;;;;5134877;27;20050;-56
2021/08/23 03:29:04;;;;;;;12.70;4.72;;;16.20;99.90;;;;;;5135126;27;20047;-56
2021/08/23 03:31:30;;;;;;;12.02;3.70;;;16.20;99.90;;;;;;5135077;27;20047;-55
2021/08/23 03:33:56;;;;;;;11.45;3.65;;;16.20;99.90;;;;;;5135130;27;20051;-55
2021/08/23 03:36:22;;;;;;;12.82;4.25;;;16.20;99.90;;;;;;5134909;27;20039;-56
2021/08/23 03:38:48;;;;;;;10.00;4.50;;;16.20;99.90;;;;;;5134776;27;20042;-56
2021/08/23 03:41:17;;;;;;;8.52;3.28;;;16.20;99.90;;;;;;5134673;27;20127;-55
2021/08/23 03:43:42;;;;;;;10.18;3.47;;;16.20;99.90;;;;;;5134873;27;20039;-55
2021/08/23 03:46:08;;;;;;;7.20;3.58;;;16.10;99.90;;;;;;5134867;27;20122;-56
2021/08/23 03:48:34;;;;;;;13.65;3.97;;;16.10;99.90;;;;;;5134732;27;20460;-55
2021/08/23 03:51:00;;;;;;;6.07;3.08;;;16.10;99.90;;;;;;5134574;27;20035;-55
2021/08/23 03:53:26;;;;;;;7.50;3.45;;;16.10;99.90;;;;;;5134775;27;20504;-56
2021/08/23 03:55:51;;;;;;;6.97;3.30;;;16.00;99.90;;;;;;5134462;27;20085;-56
2021/08/23 03:58:17;;;;;;;9.30;3.25;;;16.10;99.90;;;;;;5134929;27;20090;-56
2021/08/23 04:00:43;;;;;;;10.23;3.70;;;16.00;99.90;;;;;;5134556;27;20056;-56
2021/08/23 04:03:09;;;;;;;8.82;3.58;;;16.00;99.90;;;;;;5134284;27;20382;-55
2021/08/23 04:05:35;;;;;;;9.23;3.20;;;16.00;99.90;;;;;;5134309;27;20050;-55
2021/08/23 04:08:00;;;;;;;5.85;3.40;;;15.90;99.90;;;;;;5134235;27;20042;-55
2021/08/23 04:10:26;;;;;;;9.45;3.70;;;15.90;99.90;;;;;;5134163;27;20437;-55
2021/08/23 04:12:52;;;;;;;13.35;3.83;;;15.90;99.90;;;;;;5115672;27;20047;-56
2021/08/23 04:15:19;;;;;;;11.27;3.60;;;15.80;99.90;;;;;;5134132;27;20085;-56
2021/08/23 04:17:45;;;;;;;9.30;4.40;;;15.90;99.90;;;;;;5134002;27;20058;-55
2021/08/23 04:20:12;;;;;;;8.88;3.63;;;15.80;99.90;;;;;;5133891;27;20469;-56
2021/08/23 04:22:38;;;;;;;12.40;4.05;;;15.80;99.90;;;;;;5133936;27;20035;-56
2021/08/23 04:25:04;;;;;;;5.07;3.75;;;15.80;99.90;;;;;;5133849;27;20489;-55
2021/08/23 04:27:30;;;;;;;6.72;3.05;;;15.80;99.90;;;;;;5133777;27;20408;-56
2021/08/23 04:29:56;;;;;;;7.00;4.03;;;15.90;99.90;;;;;;5133668;27;20049;-56
2021/08/23 04:32:22;;;;;;;8.40;3.88;;;15.80;99.90;;;;;;5133788;27;20047;-56
2021/08/23 04:34:47;;;;;;;6.40;3.97;;;15.80;99.90;;;;;;5133472;27;20043;-56
2021/08/23 04:37:13;;;;;;;7.43;3.45;;;15.70;99.90;;;;;;5133584;27;20473;-56
2021/08/23 04:39:39;;;;;;;6.93;3.40;;;15.80;99.90;;;;;;5133897;27;20039;-56
2021/08/23 04:42:06;;;;;;;12.30;3.90;;;15.80;99.90;;;;;;5133838;27;20408;-56
2021/08/23 04:44:32;;;;;;;7.90;3.63;;;15.80;99.90;;;;;;5133738;27;20396;-55
2021/08/23 04:46:57;;;;;;;9.85;3.75;;;15.80;99.90;;;;;;5133773;27;20051;-56
2021/08/23 04:49:23;;;;;;;7.65;3.70;;;15.80;99.90;;;;;;5133796;27;20054;-56
2021/08/23 04:51:49;;;;;;;6.88;3.80;;;15.80;99.90;;;;;;5133410;27;20047;-56
2021/08/23 04:54:14;;;;;;;12.52;3.70;;;15.80;99.90;;;;;;5133263;27;20043;-56
2021/08/23 04:56:40;;;;;;;10.05;3.95;;;15.80;99.90;;;;;;5133437;27;20130;-55
2021/08/23 04:59:06;;;;;;;7.28;3.60;;;15.70;99.90;;;;;;5133386;27;20046;-56
2021/08/23 05:01:31;;;;;;;6.40;2.95;;;15.70;99.90;;;;;;5133264;27;20035;-56
2021/08/23 05:03:57;;;;;;;13.80;4.38;;;15.70;99.90;;;;;;5133120;27;20039;-56
2021/08/23 05:06:23;;;;;;;12.43;4.40;;;15.80;99.90;;;;;;5133180;27;20035;-55
2021/08/23 05:08:48;;;;;;;12.57;4.20;;;15.80;99.90;;;;;;5132982;27;20412;-56
2021/08/23 05:11:14;;;;;;;8.18;3.40;;;15.70;99.90;;;;;;5133335;27;20051;-55
2021/08/23 05:13:40;;;;;;;10.02;4.28;;;15.80;99.90;;;;;;5132997;27;20063;-56
2021/08/23 05:16:06;;;;;;;7.13;3.58;;;15.80;99.90;;;;;;5133065;27;20042;-56
2021/08/23 05:18:32;;;;;;;8.77;3.88;;;15.90;99.90;;;;;;5132929;27;20047;-56
2021/08/23 05:21:03;;;;;;;14.30;4.38;;;15.90;99.90;;;;;;5133122;27;20150;-56
2021/08/23 05:23:29;;;;;;;6.35;3.47;;;15.90;99.90;;;;;;5132925;27;20042;-56
2021/08/23 05:25:55;;;;;;;6.97;3.47;;;15.90;99.90;;;;;;5132964;27;20450;-56
2021/08/23 05:28:20;;;;;;;7.45;3.58;;;16.00;99.90;;;;;;5114570;28;20047;-56
2021/08/23 05:30:46;;;;;;;8.15;3.40;;;16.00;99.90;;;;;;5132751;27;20126;-56
2021/08/23 05:33:12;;;;;;;5.47;3.13;;;16.10;99.90;;;;;;5132161;27;20040;-55
2021/08/23 05:35:37;;;;;;;11.27;4.20;;;16.10;99.90;;;;;;5132812;27;20043;-55
2021/08/23 05:38:03;;;;;;;11.25;4.00;;;16.20;99.90;;;;;;5133189;28;20133;-56
2021/08/23 05:40:31;;;;;;;8.68;3.20;;;16.20;99.90;;;;;;5132691;28;20043;-56
2021/08/23 05:42:58;;;;;;;8.43;3.95;;;16.30;99.90;;;;;;5132980;28;20122;-56
2021/08/23 05:45:23;;;;;;;10.10;3.60;;;16.30;99.90;;;;;;5132732;28;20046;-56
2021/08/23 05:47:49;;;;;;;10.85;3.92;;;16.30;99.90;;;;;;5132632;28;20051;-56
2021/08/23 05:50:15;;;;;;;9.80;3.63;;;16.40;99.90;;;;;;5132509;28;20031;-56
2021/08/23 05:52:41;;;;;;;9.55;3.72;;;16.50;99.90;;;;;;5132721;28;20477;-55
2021/08/23 05:55:07;;;;;;;12.27;3.42;;;16.60;99.90;;;;;;5132494;28;20108;-55
2021/08/23 05:57:32;;;;;;;9.02;4.10;;;16.60;99.90;;;;;;5132460;28;20050;-56
2021/08/23 05:59:58;;;;;;;6.38;3.38;;;16.70;99.90;;;;;;5132608;28;20040;-56
2021/08/23 06:02:24;;;;;;;12.88;4.68;;;16.70;99.90;;;;;;5132506;28;20137;-55
2021/08/23 06:04:49;;;;;;;6.47;3.38;;;16.80;99.90;;;;;;5132500;28;20042;-56
2021/08/23 06:07:15;;;;;;;9.10;3.70;;;16.80;99.90;;;;;;5132773;28;20073;-56
2021/08/23 06:09:41;;;;;;;6.25;3.78;;;16.90;99.90;;;;;;5132510;28;20118;-56
2021/08/23 06:12:07;;;;;;;7.80;3.03;;;16.90;99.90;;;;;;5132405;28;20050;-56
2021/08/23 06:14:33;;;;;;;9.80;3.55;;;16.90;99.90;;;;;;5132452;28;20050;-56
2021/08/23 06:16:59;;;;;;;12.85;4.22;;;17.00;99.90;;;;;;5132194;28;20401;-56
2021/08/23 06:19:26;;;;;;;6.50;3.17;;;17.20;99.90;;;;;;5132327;28;20043;-56
2021/08/23 06:21:51;;;;;;;11.77;3.45;;;17.30;99.90;;;;;;5132630;28;20043;-56
2021/08/23 06:24:17;;;;;;;7.10;3.45;;;17.40;99.90;;;;;;5132471;28;20078;-56
2021/08/23 06:26:43;;;;;;;8.38;3.10;;;17.60;99.90;;;;;;5132594;28;20058;-56
2021/08/23 06:29:09;;;;;;;8.88;3.28;;;17.80;99.90;;;;;;5132437;28;20051;-56
2021/08/23 06:31:36;;;;;;;11.93;3.42;;;18.00;99.90;;;;;;5132192;28;20441;-56
2021/08/23 06:34:01;;;;;;;10.23;3.15;;;18.20;99.90;;;;;;5132120;28;20070;-56
2021/08/23 06:36:27;;;;;;;10.77;3.28;;;18.40;99.90;;;;;;5132092;28;20074;-55
2021/08/23 06:38:53;;;;;;;11.13;3.45;;;18.50;99.90;;;;;;5132074;28;20054;-55
2021/08/23 06:41:20;;;;;;;5.55;2.75;;;18.50;99.90;;;;;;5132355;28;20142;-56
2021/08/23 06:43:47;;;;;;;6.93;3.08;;;18.40;99.90;;;;;;5132159;27;20455;-56
2021/08/23 06:46:14;;;;;;;4.88;2.88;;;18.40;99.90;;;;;;5135663;27;20135;-56
2021/08/23 06:48:40;;;;;;;7.70;3.13;;;18.30;99.90;;;;;;5134523;27;20050;-56
2021/08/23 06:51:05;;;;;;;7.63;3.00;;;18.20;99.90;;;;;;5135857;27;20035;-56
2021/08/23 06:53:32;;;;;;;9.98;3.08;;;18.20;99.90;;;;;;5135873;27;20039;-56
2021/08/23 06:55:58;;;;;;;12.48;2.78;;;18.20;99.90;;;;;;5135456;27;20538;-56
2021/08/23 06:58:37;;;;;;;9.23;3.10;;;18.20;99.90;;;;;;5135636;27;20054;-56
2021/08/23 07:01:03;;;;;;;8.18;2.85;;;18.30;99.90;;;;;;5135396;27;20404;-56
2021/08/23 07:03:29;;;;;;;6.80;2.80;;;18.20;99.90;;;;;;5135917;27;20058;-56
2021/08/23 07:05:54;;;;;;;5.10;2.72;;;18.20;99.90;;;;;;5135724;27;20043;-58
2021/08/23 07:08:24;;;;;;;6.78;2.42;;;18.20;99.90;;;;;;5135553;27;20441;-56
2021/08/23 07:10:51;;;;;;;5.95;2.05;;;18.20;99.90;;;;;;5135429;27;20173;-56
2021/08/23 07:13:17;;;;;;;4.30;1.77;;;18.20;99.90;;;;;;5135597;27;20055;-56
2021/08/23 07:15:43;;;;;;;4.55;1.90;;;18.50;99.90;;;;;;5135393;27;20444;-56
2021/08/23 07:18:09;;;;;;;3.20;2.05;;;18.90;99.90;;;;;;5135825;27;20043;-57
2021/08/23 07:20:35;;;;;;;4.05;1.98;;;19.00;99.90;;;;;;5135444;27;20043;-56
2021/08/23 07:23:01;;;;;;;7.78;2.25;;;19.40;99.90;;;;;;5135215;27;20468;-56
2021/08/23 07:25:28;;;;;;;6.93;2.20;;;19.70;99.90;;;;;;5135081;27;20043;-56
2021/08/23 07:27:54;;;;;;;6.60;1.98;;;20.00;99.90;;;;;;5135127;27;20050;-56
2021/08/23 07:30:20;;;;;;;5.57;1.98;;;20.00;99.90;;;;;;5134806;27;20385;-56
2021/08/23 07:32:46;;;;;;;7.72;1.73;;;20.10;99.90;;;;;;5135201;27;20491;-56
2021/08/23 07:35:12;;;;;;;5.40;1.85;;;20.40;99.90;;;;;;5134781;27;20067;-56
2021/08/23 07:37:46;;;;;;;9.02;2.42;;;20.90;99.90;;;;;;5135291;27;20039;-57
2021/08/23 07:40:13;;;;;;;7.45;2.90;;;21.10;99.90;;;;;;5135221;27;20129;-57
2021/08/23 07:42:39;;;;;;;5.93;1.90;;;21.20;99.90;;;;;;5134911;27;20048;-56
2021/08/23 07:45:06;;;;;;;20.77;2.58;;;21.40;99.90;;;;;;5134790;27;20115;-56
2021/08/23 07:47:32;;;;;;;9.02;1.85;;;21.70;99.90;;;;;;5134782;27;20110;-57
2021/08/23 07:49:57;;;;;;;37.50;2.95;;;21.90;99.90;;;;;;5126760;27;20491;-56
2021/08/23 07:52:24;;;;;;;8.95;1.77;;;22.10;99.90;;;;;;5139961;27;20059;-57
2021/08/23 07:54:49;;;;;;;11.50;1.60;;;22.20;99.90;;;;;;5154946;27;20081;-56
2021/08/23 07:57:15;;;;;;;44.13;4.45;;;22.30;99.90;;;;;;5136588;27;20074;-56
2021/08/23 07:59:41;;;;;;;36.63;3.92;;;22.70;99.90;;;;;;5155256;27;20448;-56
2021/08/23 08:02:06;;;;;;;4.65;1.77;;;22.80;99.90;;;;;;5155500;27;20095;-57
2021/08/23 08:04:32;;;;;;;3.58;1.55;;;22.80;99.90;;;;;;5155240;27;20507;-56
2021/08/23 08:06:58;;;;;;;3.45;1.27;;;22.10;99.90;;;;;;5155071;27;20133;-56
2021/08/23 08:09:24;;;;;;;5.28;2.15;;;22.30;99.90;;;;;;5155156;27;20043;-56
2021/08/23 08:11:49;;;;;;;7.13;1.70;;;22.00;99.90;;;;;;5155138;27;20046;-57
2021/08/23 08:14:15;;;;;;;4.47;1.60;;;22.40;99.90;;;;;;5153768;27;20038;-56
2021/08/23 08:16:41;;;;;;;4.03;1.60;;;22.60;99.90;;;;;;5160686;27;20380;-62
2021/08/23 08:19:07;;;;;;;6.65;2.05;;;22.70;99.90;;;;;;5162076;27;20046;-63
2021/08/23 08:21:33;;;;;;;4.80;1.70;;;22.30;99.90;;;;;;5143260;27;20059;-62
2021/08/23 08:23:59;;;;;;;4.93;2.28;;;22.70;99.90;;;;;;5133578;27;20047;-62
2021/08/23 08:26:25;;;;;;;4.35;1.38;;;22.70;99.90;;;;;;5142674;27;20039;-62
2021/08/23 08:28:54;;;;;;;4.88;2.13;;;22.80;99.90;;;;;;5157513;27;20070;-62
2021/08/23 08:31:20;;;;;;;13.40;1.75;;;23.00;99.90;;;;;;5164171;27;20097;-62
2021/08/23 08:33:48;;;;;;;4.63;1.50;;;23.20;99.90;;;;;;5175377;27;20038;-62
2021/08/23 08:36:14;;;;;;;6.53;1.70;;;23.30;99.90;;;;;;5175388;27;20429;-62
2021/08/23 08:38:42;;;;;;;2.63;1.25;;;23.00;99.90;;;;;;5175371;27;20042;-62
2021/08/23 08:41:07;;;;;;;4.85;1.77;;;22.50;99.90;;;;;;5175146;27;20038;-62
2021/08/23 08:43:33;;;;;;;5.80;1.67;;;22.50;99.90;;;;;;5175525;27;20102;-62
2021/08/23 08:46:13;;;;;;;4.35;1.58;;;22.60;99.90;;;;;;5165056;27;20404;-63
2021/08/23 08:48:43;;;;;;;4.13;1.33;;;22.70;99.90;;;;;;5158734;27;20053;-62
2021/08/23 08:51:12;;;;;;;2.97;1.20;;;22.50;99.90;;;;;;5154321;27;20476;-62
2021/08/23 08:53:38;;;;;;;1.30;1.00;;;23.10;99.90;;;;;;5154600;27;20041;-60
2021/08/23 08:56:04;;;;;;;3.33;1.27;;;24.70;99.90;;;;;;5156285;27;20034;-61
2021/08/23 08:58:33;;;;;;;2.50;1.05;;;25.80;99.90;;;;;;5154942;27;20152;-62
2021/08/23 09:01:02;;;;;;;2.72;1.17;;;26.20;99.90;;;;;;5163135;27;20050;-61
2021/08/23 09:03:29;;;;;;;3.88;0.95;;;26.20;97.30;;;;;;5152607;27;20445;-61
2021/08/23 09:06:06;;;;;;;2.50;1.10;;;26.10;97.40;;;;;;5160805;27;20059;-62
2021/08/23 09:08:39;;;;;;;3.67;1.30;;;25.60;96.20;;;;;;5174299;27;20042;-62
2021/08/23 09:11:15;;;;;;;2.75;0.90;;;25.80;97.40;;;;;;5155832;27;20046;-61
2021/08/23 09:14:00;;;;;;;3.90;1.52;;;25.70;98.00;;;;;;5174707;27;20046;-62
2021/08/23 09:16:46;;;;;;;4.55;1.13;;;25.10;95.50;;;;;;5159157;27;20042;-62
2021/08/23 09:19:28;;;;;;;2.83;1.15;;;24.90;96.60;;;;;;5174632;27;20403;-62
2021/08/23 09:22:02;;;;;;;3.47;1.25;;;24.80;96.70;;;;;;5174692;27;20042;-62
2021/08/23 09:24:37;;;;;;;1.95;1.20;;;25.50;95.90;;;;;;5164626;27;20039;-63
2021/08/23 09:27:23;;;;;;;3.65;1.13;;;24.90;96.30;;;;;;5158661;27;20053;-63
2021/08/23 09:30:01;;;;;;;2.58;1.13;;;24.70;97.00;;;;;;5157085;27;20054;-61
2021/08/23 09:32:32;;;;;;;2.65;1.02;;;26.00;97.40;;;;;;5174368;27;20555;-62
2021/08/23 09:35:08;;;;;;;2.72;1.20;;;26.50;96.80;;;;;;5174476;27;20046;-62
2021/08/23 09:37:48;;;;;;;5.38;1.38;;;27.00;96.10;;;;;;5172770;27;20125;-63
2021/08/23 09:40:40;;;;;;;1.63;0.90;;;27.60;93.80;;;;;;5133013;28;20035;-62
2021/08/23 09:43:11;;;;;;;3.38;1.25;;;27.10;93.70;;;;;;5132717;28;20039;-62
2021/08/23 09:45:48;;;;;;;1.48;0.93;;;27.70;93.20;;;;;;5143181;27;20108;-62
2021/08/23 09:48:18;;;;;;;2.58;1.17;;;28.20;93.00;;;;;;5172890;27;20042;-64
2021/08/23 09:50:46;;;;;;;1.80;1.20;;;29.00;92.30;;;;;;5174295;27;20038;-62
2021/08/23 09:53:14;;;;;;;;;;;29.10;90.70;;;;;;5167416;27;20161;-62
2021/08/23 09:55:42;;;;;;;2.60;1.08;;;29.20;90.90;;;;;;5167511;27;19919;-62
2021/08/23 09:58:09;;;;;;;2.08;1.13;;;29.20;90.10;;;;;;5173119;27;20042;-63
2021/08/23 10:00:37;;;;;;;2.92;1.10;;;28.10;90.70;;;;;;5167806;27;20121;-61
2021/08/23 10:03:15;;;;;;;2.03;0.90;;;27.90;90.00;;;;;;5173996;27;20034;-64
2021/08/23 10:05:43;;;;;;;1.90;0.88;;;28.60;88.90;;;;;;5172702;27;20296;-62
2021/08/23 10:08:12;;;;;;;2.88;1.23;;;28.90;90.40;;;;;;5173978;27;20050;-63
2021/08/23 10:10:39;;;;;;;1.75;1.02;;;29.10;90.20;;;;;;5173832;27;20050;-63
2021/08/23 10:13:06;;;;;;;2.53;1.23;;;29.20;87.50;;;;;;5174161;27;20048;-62
2021/08/23 10:15:32;;;;;;;2.78;1.25;;;29.10;87.10;;;;;;5173855;27;20428;-61
2021/08/23 10:18:02;;;;;;;2.17;1.20;;;27.90;87.20;;;;;;5173988;27;20046;-62
2021/08/23 10:20:28;;;;;;;3.50;0.95;;;29.00;87.60;;;;;;5178088;27;20105;-62
2021/08/23 10:22:56;;;;;;;2.60;0.98;;;28.70;84.30;;;;;;5177716;27;20484;-63
2021/08/23 10:25:22;;;;;;;3.28;1.40;;;27.70;86.90;;;;;;5177834;27;20046;-62
2021/08/23 10:27:48;;;;;;;2.92;1.38;;;27.80;85.40;;;;;;5177733;27;20038;-62
2021/08/23 10:30:23;;;;;;;2.05;1.10;;;27.50;83.90;;;;;;5177496;27;20057;-62
2021/08/23 10:32:49;;;;;;;1.27;0.93;;;27.90;86.60;;;;;;5177795;27;20133;-61
2021/08/23 10:35:25;;;;;;;4.13;1.20;;;27.70;85.90;;;;;;5177433;27;20453;-62
2021/08/23 10:37:53;;;;;;;1.85;1.00;;;28.20;84.70;;;;;;5177549;27;20042;-64
2021/08/23 10:40:35;;;;;;;2.60;1.25;;;28.10;84.40;;;;;;5177522;27;20042;-62
2021/08/23 10:43:16;;;;;;;4.25;1.40;;;28.50;84.00;;;;;;5177586;27;20045;-62
2021/08/23 10:45:42;;;;;;;3.33;1.33;;;29.10;83.60;;;;;;5177653;27;20570;-62
2021/08/23 10:48:19;;;;;;;3.05;1.42;;;29.00;83.60;;;;;;5177381;27;20073;-62
2021/08/23 10:51:05;;;;;;;4.78;1.38;;;28.90;82.10;;;;;;5177319;27;20479;-61
2021/08/23 10:53:36;;;;;;;3.25;1.50;;;28.60;81.30;;;;;;5177432;27;20046;-61
2021/08/23 10:56:19;;;;;;;2.00;1.50;;;29.00;81.90;;;;;;5177143;27;20047;-61
2021/08/23 10:58:46;;;;;;;3.88;1.50;;;29.10;79.80;;;;;;5177105;27;20171;-62
2021/08/23 11:01:21;;;;;;;5.53;1.40;;;27.40;78.20;;;;;;5177332;27;20034;-62
2021/08/23 11:03:59;;;;;;;4.63;1.70;;;28.10;79.80;;;;;;5177250;27;20049;-62
2021/08/23 11:06:25;;;;;;;;;;;28.20;80.30;;;;;;5177566;27;20054;-62
2021/08/23 11:08:51;;;;;;;3.45;1.40;;;28.00;80.40;;;;;;5176870;27;19975;-62
2021/08/23 11:11:19;;;;;;;3.22;1.50;;;27.50;80.70;;;;;;5177054;27;20403;-62
2021/08/23 11:13:45;;;;;;;3.10;1.20;;;27.20;78.90;;;;;;5177094;27;20063;-63
2021/08/23 11:16:11;;;;;;;2.85;1.42;;;27.00;80.70;;;;;;5177097;27;20054;-62
2021/08/23 11:18:41;;;;;;;3.10;1.38;;;26.80;80.90;;;;;;5177009;27;20726;-61
2021/08/23 11:21:17;;;;;;;3.17;1.48;;;27.00;80.60;;;;;;5176917;27;20051;-62
2021/08/23 11:23:45;;;;;;;2.58;1.25;;;26.90;82.40;;;;;;5176729;27;20137;-60
2021/08/23 11:26:24;;;;;;;1.30;0.93;;;27.20;84.20;;;;;;5176755;27;20053;-60
2021/08/23 11:28:50;;;;;;;3.78;1.17;;;27.80;84.60;;;;;;5176456;27;20030;-62
2021/08/23 11:31:25;;;;;;;1.48;1.10;;;27.70;84.00;;;;;;5175842;27;20034;-62
2021/08/23 11:33:50;;;;;;;3.72;1.45;;;27.80;80.80;;;;;;5176520;27;20045;-62
2021/08/23 11:36:24;;;;;;;1.88;0.93;;;27.60;82.70;;;;;;5176296;27;20403;-62
2021/08/23 11:38:49;;;;;;;4.18;1.10;;;28.10;82.90;;;;;;5176349;27;20042;-62
2021/08/23 11:41:17;;;;;;;5.32;1.50;;;27.90;84.20;;;;;;5176504;27;20046;-60
2021/08/23 11:43:44;;;;;;;3.03;1.20;;;26.90;84.30;;;;;;5176458;27;20046;-62
2021/08/23 11:46:12;;;;;;;5.25;1.48;;;27.40;86.70;;;;;;5176345;27;20042;-61
2021/08/23 11:48:44;;;;;;;4.25;1.30;;;26.90;85.20;;;;;;5176124;27;20050;-61
2021/08/23 11:51:09;;;;;;;4.57;1.33;;;26.80;86.20;;;;;;5176724;27;20161;-61
2021/08/23 11:53:35;;;;;;;4.20;1.40;;;26.70;88.40;;;;;;5176081;27;20247;-61
2021/08/23 11:56:07;;;;;;;7.63;1.83;;;26.90;89.60;;;;;;5176189;27;20074;-61
2021/08/23 11:58:40;;;;;;;3.60;1.48;;;26.90;87.90;;;;;;5176526;27;20093;-62
2021/08/23 12:01:09;;;;;;;3.20;1.10;;;27.00;90.00;;;;;;5175932;27;20104;-61
2021/08/23 12:03:37;;;;;;;;;;;27.30;90.70;;;;;;5176438;27;20379;-61
2021/08/23 12:06:05;;;;;;;3.92;1.30;;;27.10;90.20;;;;;;5176029;27;19958;-61
2021/08/23 12:08:35;;;;;;;4.32;1.45;;;26.70;90.60;;;;;;5175774;27;20037;-62
2021/08/23 12:11:17;;;;;;;2.38;1.25;;;26.50;90.80;;;;;;5175887;27;20046;-61
2021/08/23 12:13:45;;;;;;;3.53;1.45;;;26.30;91.40;;;;;;5175559;27;20498;-61
2021/08/23 12:16:13;;;;;;;2.92;1.23;;;25.90;91.60;;;;;;5175786;27;20038;-62
2021/08/23 12:18:41;;;;;;;3.33;1.13;;;25.80;91.20;;;;;;5175667;27;20503;-61
2021/08/23 12:21:15;;;;;;;2.70;1.20;;;25.60;92.00;;;;;;5175883;27;20133;-61
2021/08/23 12:24:02;;;;;;;2.75;1.50;;;25.40;92.40;;;;;;5175579;27;20038;-62
2021/08/23 12:26:42;;;;;;;4.13;1.63;;;25.60;91.90;;;;;;5175559;27;20057;-62
2021/08/23 12:29:11;;;;;;;4.65;1.15;;;25.40;91.40;;;;;;5175452;27;20050;-62
2021/08/23 12:31:46;;;;;;;5.70;1.75;;;25.40;92.70;;;;;;5175464;27;20072;-62
2021/08/23 12:34:17;;;;;;;3.20;1.10;;;25.50;92.60;;;;;;5174480;27;20145;-61
2021/08/23 12:36:44;;;;;;;3.28;1.30;;;25.80;93.50;;;;;;5175163;27;20098;-65
2021/08/23 12:39:10;;;;;;;5.28;1.50;;;25.70;94.00;;;;;;5175408;27;20047;-62
2021/08/23 12:41:39;;;;;;;6.53;1.50;;;25.40;93.30;;;;;;5174468;27;20555;-62
2021/08/23 12:44:06;;;;;;;4.32;1.30;;;25.20;93.60;;;;;;5174945;27;20046;-62
2021/08/23 12:46:32;;;;;;;2.40;1.40;;;25.40;93.40;;;;;;5175201;27;20114;-62
2021/08/23 12:48:57;;;;;;;2.00;1.13;;;25.40;93.70;;;;;;5175034;27;20472;-61
2021/08/23 12:51:23;;;;;;;2.53;1.17;;;25.50;93.70;;;;;;5175257;27;20471;-63